createdAt,value
2018-04-12T00:00:48.282Z,51.83
2018-04-12T00:02:52.318Z,50.30
2018-04-12T00:04:56.388Z,56.33
2018-04-12T00:07:00.502Z,56.37
2018-04-12T00:09:05.331Z,50.97
2018-04-12T00:11:09.361Z,52.03
2018-04-12T00:13:13.402Z,57.13
2018-04-12T00:15:17.466Z,65.53
2018-04-12T00:17:21.498Z,56.13
2018-04-12T00:19:25.615Z,55.50
2018-04-12T00:21:29.649Z,55.87
2018-04-12T00:23:33.814Z,64.47
2018-04-12T00:25:37.847Z,64.13
2018-04-12T00:27:41.927Z,59.93
2018-04-12T00:29:45.978Z,63.70
2018-04-12T00:31:50.019Z,64.67
2018-04-12T00:33:54.095Z,62.73
2018-04-12T00:35:58.165Z,52.47
2018-04-12T00:38:02.387Z,65.37
2018-04-12T00:40:06.454Z,65.90
2018-04-12T00:42:10.520Z,70.80
2018-04-12T00:44:16.652Z,78.33
2018-04-12T00:46:20.778Z,75.87
2018-04-12T00:48:24.843Z,68.70
2018-04-12T00:50:28.929Z,71.57
2018-04-12T00:52:32.990Z,70.43
2018-04-12T00:54:37.042Z,90.97
2018-04-12T00:56:41.078Z,68.97
2018-04-12T00:58:45.186Z,68.53
2018-04-12T01:00:49.228Z,81.53
2018-04-12T01:02:53.258Z,93.77
2018-04-12T01:04:57.330Z,85.73
2018-04-12T01:07:01.514Z,87.03
2018-04-12T01:09:05.634Z,76.17
2018-04-12T01:11:09.701Z,71.97
2018-04-12T01:13:13.744Z,88.70
2018-04-12T01:15:17.808Z,91.60
2018-04-12T01:17:21.852Z,116.97
2018-04-12T01:19:25.938Z,98.80
2018-04-12T01:21:30.007Z,107.20
2018-04-12T01:23:35.209Z,105.83
2018-04-12T01:25:39.241Z,101.50
2018-04-12T01:27:43.325Z,105.30
2018-04-12T01:29:47.363Z,102.80
2018-04-12T01:31:51.432Z,107.90
2018-04-12T01:33:55.462Z,98.80
2018-04-12T01:35:59.497Z,91.10
2018-04-12T01:38:03.562Z,88.30
2018-04-12T01:40:07.599Z,85.77
2018-04-12T01:42:11.675Z,87.23
2018-04-12T01:44:15.784Z,105.97
2018-04-12T01:46:19.814Z,90.73
2018-04-12T01:48:23.884Z,92.90
2018-04-12T01:50:27.989Z,93.10
2018-04-12T01:52:32.041Z,92.03
2018-04-12T01:54:36.126Z,105.27
2018-04-12T01:56:40.169Z,121.20
2018-04-12T01:58:44.210Z,125.37
2018-04-12T02:00:48.277Z,123.97
2018-04-12T02:02:52.317Z,123.50
2018-04-12T02:04:56.378Z,118.17
2018-04-12T02:07:00.433Z,106.17
2018-04-12T02:09:04.490Z,97.47
2018-04-12T02:11:08.575Z,112.67
2018-04-12T02:13:12.640Z,119.80
2018-04-12T02:15:16.755Z,95.33
2018-04-12T02:17:20.813Z,129.80
2018-04-12T02:19:24.859Z,97.63
2018-04-12T02:21:28.928Z,115.27
2018-04-12T02:23:32.974Z,115.30
2018-04-12T02:25:37.045Z,103.23
2018-04-12T02:27:41.099Z,129.43
2018-04-12T02:29:45.154Z,108.03
2018-04-12T02:31:49.314Z,119.97
2018-04-12T02:33:53.373Z,193.90
2018-04-12T02:35:57.424Z,169.97
2018-04-12T02:38:01.521Z,148.20
2018-04-12T02:40:05.563Z,142.93
2018-04-12T02:42:09.608Z,146.67
2018-04-12T02:44:13.677Z,137.63
2018-04-12T02:46:17.756Z,130.90
2018-04-12T02:48:21.794Z,140.90
2018-04-12T02:50:25.879Z,132.90
2018-04-12T02:52:29.926Z,129.50
2018-04-12T02:54:33.965Z,132.80
2018-04-12T02:56:37.998Z,139.97
2018-04-12T02:58:42.034Z,122.50
2018-04-12T03:00:46.077Z,134.70
2018-04-12T03:02:50.141Z,139.90
2018-04-12T03:04:54.189Z,158.17
2018-04-12T03:06:58.255Z,132.73
2018-04-12T03:09:02.295Z,125.30
2018-04-12T03:11:06.305Z,149.10
2018-04-12T03:13:10.347Z,142.90
2018-04-12T03:15:14.439Z,157.33
2018-04-12T03:17:18.479Z,169.63
2018-04-12T03:19:22.522Z,169.27
2018-04-12T03:21:26.526Z,146.93
2018-04-12T03:23:30.563Z,157.47
2018-04-12T03:25:34.604Z,170.73
2018-04-12T03:27:38.634Z,141.70
2018-04-12T03:29:42.679Z,161.97
2018-04-12T03:31:46.686Z,169.40
2018-04-12T03:33:50.714Z,146.80
2018-04-12T03:35:54.759Z,142.77
2018-04-12T03:37:58.783Z,127.13
2018-04-12T03:40:02.805Z,155.03
2018-04-12T03:42:06.855Z,175.33
2018-04-12T03:44:11.013Z,173.13
2018-04-12T03:46:15.070Z,176.43
2018-04-12T03:48:19.178Z,169.33
2018-04-12T03:50:23.302Z,260.83
2018-04-12T03:52:27.348Z,161.37
2018-04-12T03:54:31.395Z,156.17
2018-04-12T03:56:35.417Z,157.77
2018-04-12T03:58:39.452Z,158.50
2018-04-12T04:00:43.494Z,169.60
2018-04-12T04:02:47.562Z,185.30
2018-04-12T04:04:51.584Z,173.70
2018-04-12T04:06:55.627Z,177.93
2018-04-12T04:08:59.773Z,198.00
2018-04-12T04:11:03.822Z,171.33
2018-04-12T04:13:07.871Z,159.07
2018-04-12T04:15:18.039Z,180.30
2018-04-12T04:17:28.111Z,169.33
2018-04-12T04:19:38.259Z,181.50
2018-04-12T04:21:43.346Z,167.17
2018-04-12T04:23:47.425Z,175.03
2018-04-12T04:25:51.436Z,183.80
2018-04-12T04:27:55.480Z,166.90
2018-04-12T04:29:59.506Z,160.10
2018-04-12T04:32:03.628Z,166.80
2018-04-12T04:34:07.690Z,154.60
2018-04-12T04:36:11.728Z,153.27
2018-04-12T04:38:15.834Z,169.57
2018-04-12T04:40:20.010Z,177.80
2018-04-12T04:42:25.194Z,169.77
2018-04-12T04:44:29.234Z,173.17
2018-04-12T04:46:33.263Z,162.73
2018-04-12T04:48:37.308Z,211.00
2018-04-12T04:50:41.317Z,164.40
2018-04-12T04:52:45.362Z,150.40
2018-04-12T04:54:49.371Z,173.37
2018-04-12T04:56:53.405Z,167.27
2018-04-12T04:58:57.448Z,162.53
2018-04-12T05:01:01.472Z,146.30
2018-04-12T05:03:05.573Z,153.83
2018-04-12T05:05:09.614Z,142.30
2018-04-12T05:07:13.677Z,150.17
2018-04-12T05:09:17.730Z,147.13
2018-04-12T05:11:21.747Z,129.23
2018-04-12T05:13:25.768Z,125.53
2018-04-12T05:15:29.832Z,125.67
2018-04-12T05:17:33.906Z,124.53
2018-04-12T05:19:37.960Z,134.27
2018-04-12T05:21:42.004Z,131.03
2018-04-12T05:23:46.037Z,125.97
2018-04-12T05:25:50.101Z,106.07
2018-04-12T05:27:54.153Z,102.03
2018-04-12T05:29:58.188Z,110.43
2018-04-12T05:32:02.252Z,114.30
2018-04-12T05:34:06.389Z,99.90
2018-04-12T05:36:10.530Z,101.63
2018-04-12T05:38:17.504Z,96.13
2018-04-12T05:40:21.679Z,104.27
2018-04-12T05:42:25.732Z,89.60
2018-04-12T05:44:29.769Z,86.33
2018-04-12T05:46:33.801Z,88.23
2018-04-12T05:48:37.852Z,82.83
2018-04-12T05:50:45.445Z,86.00
2018-04-12T05:52:49.506Z,75.73
2018-04-12T05:54:53.564Z,73.37
2018-04-12T05:56:57.593Z,72.63
2018-04-12T05:59:01.623Z,77.37
2018-04-12T06:01:05.672Z,64.73
2018-04-12T06:03:09.711Z,73.80
2018-04-12T06:05:13.754Z,70.80
2018-04-12T06:07:17.809Z,73.03
2018-04-12T06:09:21.824Z,75.47
2018-04-12T06:11:25.855Z,79.73
2018-04-12T06:13:29.916Z,70.10
2018-04-12T06:15:33.924Z,81.50
2018-04-12T06:17:37.957Z,78.77
2018-04-12T06:19:41.992Z,85.00
2018-04-12T06:21:46.259Z,72.93
2018-04-12T06:23:50.335Z,84.20
2018-04-12T06:25:54.396Z,80.43
2018-04-12T06:27:58.435Z,86.13
2018-04-12T06:30:02.498Z,74.10
2018-04-12T06:32:06.539Z,76.30
2018-04-12T06:34:10.581Z,73.20
2018-04-12T06:36:14.634Z,82.40
2018-04-12T06:38:18.648Z,80.47
2018-04-12T06:40:22.669Z,79.40
2018-04-12T06:42:28.166Z,84.47
2018-04-12T06:44:41.891Z,77.10
2018-04-12T06:46:46.726Z,84.20
2018-04-12T06:48:50.992Z,87.23
2018-04-12T06:50:55.047Z,85.17
2018-04-12T06:52:59.074Z,73.67
2018-04-12T06:55:03.107Z,73.53
2018-04-12T06:57:07.185Z,84.40
2018-04-12T06:59:11.229Z,85.43
2018-04-12T07:01:15.271Z,76.10
2018-04-12T07:03:19.313Z,77.90
2018-04-12T07:05:23.345Z,78.13
2018-04-12T07:07:27.351Z,82.93
2018-04-12T07:09:31.377Z,95.27
2018-04-12T07:11:35.419Z,75.73
2018-04-12T07:13:39.456Z,79.43
2018-04-12T07:15:43.495Z,83.03
2018-04-12T07:17:47.546Z,79.50
2018-04-12T07:19:51.590Z,77.40
2018-04-12T07:21:55.652Z,81.40
2018-04-12T07:23:59.680Z,77.33
2018-04-12T07:26:03.763Z,84.10
2018-04-12T07:28:07.817Z,77.50
2018-04-12T07:30:11.847Z,82.17
2018-04-12T07:32:15.885Z,81.20
2018-04-12T07:34:19.932Z,81.40
2018-04-12T07:36:23.948Z,88.53
2018-04-12T07:38:28.003Z,79.53
2018-04-12T07:40:32.040Z,78.77
2018-04-12T07:42:36.082Z,79.77
2018-04-12T07:44:40.138Z,84.13
2018-04-12T07:46:44.180Z,90.60
2018-04-12T07:48:48.220Z,84.30
2018-04-12T07:50:52.268Z,84.67
2018-04-12T07:52:56.289Z,83.80
2018-04-12T07:55:00.335Z,89.90
2018-04-12T07:57:04.380Z,87.97
2018-04-12T07:59:08.432Z,86.07
2018-04-12T08:01:12.465Z,87.33
2018-04-12T08:03:16.503Z,91.17
2018-04-12T08:05:20.505Z,85.70
2018-04-12T08:07:24.558Z,90.73
2018-04-12T08:09:28.580Z,98.20
2018-04-12T08:11:32.638Z,93.77
2018-04-12T08:13:36.705Z,106.63
2018-04-12T08:15:40.732Z,92.10
2018-04-12T08:17:44.829Z,99.77
2018-04-12T08:19:48.878Z,90.07
2018-04-12T08:21:52.927Z,87.03
2018-04-12T08:23:56.948Z,89.60
2018-04-12T08:26:00.989Z,98.53
2018-04-12T08:28:05.052Z,95.23
2018-04-12T08:30:09.081Z,95.20
2018-04-12T08:32:13.103Z,94.50
2018-04-12T08:34:17.149Z,101.20
2018-04-12T08:36:21.201Z,101.30
2018-04-12T08:38:25.220Z,90.37
2018-04-12T08:40:29.303Z,100.63
2018-04-12T08:42:33.334Z,97.10
2018-04-12T08:44:37.373Z,100.13
2018-04-12T08:46:41.429Z,102.33
2018-04-12T08:48:45.443Z,105.10
2018-04-12T08:50:49.484Z,114.97
2018-04-12T08:52:53.509Z,105.27
2018-04-12T08:54:57.536Z,105.20
2018-04-12T08:57:01.584Z,103.17
2018-04-12T08:59:05.614Z,110.53
2018-04-12T09:01:09.634Z,97.43
2018-04-12T09:03:13.680Z,100.33
2018-04-12T09:05:17.735Z,109.80
2018-04-12T09:07:21.760Z,103.07
2018-04-12T09:09:26.666Z,116.43
2018-04-12T09:11:30.680Z,107.20
2018-04-12T09:13:34.736Z,110.70
2018-04-12T09:15:38.749Z,117.20
2018-04-12T09:17:42.772Z,125.43
2018-04-12T09:19:46.836Z,112.93
2018-04-12T09:21:50.854Z,122.53
2018-04-12T09:23:54.860Z,116.73
2018-04-12T09:25:58.899Z,108.23
2018-04-12T09:28:02.925Z,118.23
2018-04-12T09:30:06.960Z,126.77
2018-04-12T09:32:11.001Z,124.87
2018-04-12T09:34:15.029Z,120.47
2018-04-12T09:36:19.069Z,128.27
2018-04-12T09:38:23.116Z,121.17
2018-04-12T09:40:27.142Z,127.23
2018-04-12T09:42:31.214Z,124.57
2018-04-12T09:44:35.280Z,130.93
2018-04-12T09:46:39.312Z,132.63
2018-04-12T09:48:43.369Z,123.23
2018-04-12T09:50:47.409Z,123.20
2018-04-12T09:52:51.471Z,118.27
2018-04-12T09:54:55.485Z,125.83
2018-04-12T09:56:59.519Z,118.23
2018-04-12T09:59:03.598Z,118.90
2018-04-12T10:01:13.472Z,109.50
2018-04-12T10:03:17.492Z,105.27
2018-04-12T10:05:27.354Z,113.20
2018-04-12T10:07:37.179Z,107.03
2018-04-12T10:09:41.185Z,103.10
2018-04-12T10:11:45.255Z,99.20
2018-04-12T10:13:49.273Z,104.93
2018-04-12T10:15:53.293Z,112.57
2018-04-12T10:17:57.350Z,94.63
2018-04-12T10:20:01.380Z,109.27
2018-04-12T10:22:05.464Z,92.53
2018-04-12T10:24:09.479Z,104.30
2018-04-12T10:26:13.672Z,88.13
2018-04-12T10:28:17.689Z,94.07
2018-04-12T10:30:21.710Z,76.73
2018-04-12T10:32:25.721Z,85.20
2018-04-12T10:34:29.757Z,90.50
2018-04-12T10:36:33.777Z,88.73
2018-04-12T10:38:37.799Z,79.63
2018-04-12T10:40:41.889Z,77.33
2018-04-12T10:42:45.922Z,84.00
2018-04-12T10:44:49.986Z,92.13
2018-04-12T10:46:54.006Z,89.47
2018-04-12T10:48:58.037Z,81.30
2018-04-12T10:51:02.095Z,89.43
2018-04-12T10:53:06.124Z,94.80
2018-04-12T10:55:10.162Z,84.10
2018-04-12T10:57:14.202Z,89.23
2018-04-12T10:59:18.337Z,89.40
2018-04-12T11:01:22.383Z,87.13
2018-04-12T11:03:26.394Z,83.13
2018-04-12T11:05:30.467Z,87.83
2018-04-12T11:07:34.549Z,88.90
2018-04-12T11:09:38.574Z,89.40
2018-04-12T11:11:42.624Z,82.40
2018-04-12T11:13:46.676Z,88.80
2018-04-12T11:15:50.729Z,83.13
2018-04-12T11:17:54.778Z,80.13
2018-04-12T11:19:58.801Z,83.27
2018-04-12T11:22:02.835Z,81.77
2018-04-12T11:24:06.896Z,73.80
2018-04-12T11:26:10.946Z,75.73
2018-04-12T11:28:14.972Z,82.20
2018-04-12T11:30:19.008Z,76.67
2018-04-12T11:32:23.023Z,71.30
2018-04-12T11:34:27.089Z,67.07
2018-04-12T11:36:31.143Z,70.33
2018-04-12T11:38:35.155Z,77.63
2018-04-12T11:40:39.229Z,71.03
2018-04-12T11:42:43.252Z,71.60
2018-04-12T11:44:47.299Z,78.00
2018-04-12T11:46:51.333Z,71.63
2018-04-12T11:48:55.393Z,75.43
2018-04-12T11:50:59.397Z,70.90
2018-04-12T11:53:03.420Z,76.60
2018-04-12T11:55:07.497Z,88.73
2018-04-12T11:57:11.531Z,76.67
2018-04-12T11:59:15.541Z,69.77
2018-04-12T12:01:19.590Z,74.37
2018-04-12T12:03:23.631Z,73.73
2018-04-12T12:05:27.792Z,67.23
2018-04-12T12:07:31.836Z,80.00
2018-04-12T12:09:36.019Z,68.57
2018-04-12T12:11:40.088Z,77.60
2018-04-12T12:13:44.136Z,81.03
2018-04-12T12:15:48.198Z,70.70
2018-04-12T12:17:52.211Z,72.90
2018-04-12T12:19:56.201Z,72.67
2018-04-12T12:22:00.248Z,75.70
2018-04-12T12:24:04.277Z,75.77
2018-04-12T12:26:08.285Z,79.20
2018-04-12T12:28:12.331Z,77.97
2018-04-12T12:30:16.381Z,73.27
2018-04-12T12:32:20.432Z,71.67
2018-04-12T12:34:25.469Z,77.27
2018-04-12T12:36:29.671Z,79.43
2018-04-12T12:38:33.820Z,77.20
2018-04-12T12:40:37.844Z,80.23
2018-04-12T12:42:41.914Z,83.80
2018-04-12T12:44:45.941Z,75.43
2018-04-12T12:46:49.958Z,73.33
2018-04-12T12:48:54.000Z,69.80
2018-04-12T12:50:58.021Z,76.50
2018-04-12T12:53:02.025Z,74.20
2018-04-12T12:55:06.085Z,73.07
2018-04-12T12:57:10.101Z,71.87
2018-04-12T12:59:14.153Z,86.27
2018-04-12T13:01:18.221Z,67.50
2018-04-12T13:03:22.247Z,74.47
2018-04-12T13:05:26.314Z,74.20
2018-04-12T13:07:30.323Z,74.00
2018-04-12T13:09:38.625Z,73.27
2018-04-12T13:11:42.657Z,75.57
2018-04-12T13:13:46.681Z,78.63
2018-04-12T13:15:50.702Z,76.03
2018-04-12T13:17:54.763Z,131.77
2018-04-12T13:19:58.779Z,136.83
2018-04-12T13:22:03.221Z,74.13
2018-04-12T13:24:07.617Z,78.10
2018-04-12T13:26:11.636Z,72.73
2018-04-12T13:28:15.950Z,78.23
2018-04-12T13:30:20.300Z,73.53
2018-04-12T13:32:24.640Z,72.00
2018-04-12T13:34:28.964Z,77.03
2018-04-12T13:36:33.315Z,74.77
2018-04-12T13:38:37.649Z,62.13
2018-04-12T13:40:42.010Z,64.27
2018-04-12T13:42:46.347Z,64.50
2018-04-12T13:44:50.687Z,70.57
2018-04-12T13:46:55.042Z,65.70
2018-04-12T13:48:59.353Z,68.80
2018-04-12T13:51:03.669Z,62.20
2018-04-12T13:53:07.997Z,70.70
2018-04-12T13:55:12.375Z,66.00
2018-04-12T13:57:16.681Z,68.27
2018-04-12T13:59:21.027Z,63.27
2018-04-12T14:01:25.412Z,64.00
2018-04-12T14:03:29.765Z,60.67
2018-04-12T14:05:34.073Z,66.20
2018-04-12T14:07:38.382Z,73.50
2018-04-12T14:09:42.734Z,70.03
2018-04-12T14:11:47.070Z,68.97
2018-04-12T14:13:51.475Z,69.67
2018-04-12T14:15:56.019Z,65.70
2018-04-12T14:18:00.328Z,63.07
2018-04-12T14:20:04.678Z,64.60
2018-04-12T14:22:09.240Z,69.00
2018-04-12T14:24:13.629Z,64.90
2018-04-12T14:26:18.155Z,69.20
2018-04-12T14:28:22.489Z,67.77
2018-04-12T14:30:26.816Z,76.30
2018-04-12T14:32:31.183Z,69.40
2018-04-12T14:34:35.528Z,67.87
2018-04-12T14:36:39.841Z,65.07
2018-04-12T14:38:44.374Z,65.00
2018-04-12T14:40:48.688Z,73.13
2018-04-12T14:42:53.010Z,66.90
2018-04-12T14:44:57.351Z,65.07
2018-04-12T14:47:01.782Z,69.60
2018-04-12T14:49:06.119Z,66.13
2018-04-12T14:51:10.594Z,63.20
2018-04-12T14:53:14.984Z,63.60
2018-04-12T14:55:19.327Z,66.60
2018-04-12T14:57:23.654Z,64.00
2018-04-12T14:59:28.006Z,68.10
2018-04-12T15:01:32.338Z,78.60
2018-04-12T15:03:36.673Z,66.57
2018-04-12T15:05:41.011Z,66.70
2018-04-12T15:07:45.428Z,64.03
2018-04-12T15:09:49.802Z,74.97
2018-04-12T15:11:54.127Z,64.60
2018-04-12T15:13:58.467Z,62.37
2018-04-12T15:16:02.855Z,72.13
2018-04-12T15:18:08.590Z,62.93
2018-04-12T15:20:12.904Z,65.00
2018-04-12T15:22:17.261Z,65.13
2018-04-12T15:24:21.594Z,63.77
2018-04-12T15:26:25.928Z,66.03
2018-04-12T15:28:30.298Z,66.23
2018-04-12T15:30:34.624Z,67.33
2018-04-12T15:32:38.930Z,65.40
2018-04-12T15:34:43.295Z,65.60
2018-04-12T15:36:47.740Z,57.37
2018-04-12T15:38:52.064Z,64.23
2018-04-12T15:40:56.401Z,65.87
2018-04-12T15:43:00.724Z,66.23
2018-04-12T15:45:06.866Z,74.97
2018-04-12T15:47:11.228Z,60.40
2018-04-12T15:49:15.552Z,59.37
2018-04-12T15:51:19.876Z,66.40
2018-04-12T15:53:24.263Z,59.40
2018-04-12T15:55:29.462Z,65.80
2018-04-12T15:57:33.809Z,64.53
2018-04-12T15:59:38.163Z,59.43
2018-04-12T16:01:42.516Z,65.60
2018-04-12T16:03:46.865Z,59.43
2018-04-12T16:05:51.260Z,62.00
2018-04-12T16:07:55.596Z,66.40
2018-04-12T16:09:59.940Z,62.17
2018-04-12T16:12:04.494Z,66.50
2018-04-12T16:14:08.856Z,62.63
2018-04-12T16:16:13.220Z,60.80
2018-04-12T16:18:17.562Z,66.60
2018-04-12T16:20:22.338Z,63.80
2018-04-12T16:22:26.684Z,68.33
2018-04-12T16:24:31.022Z,65.93
2018-04-12T16:26:35.404Z,67.23
2018-04-12T16:28:39.734Z,69.27
2018-04-12T16:30:44.043Z,71.20
2018-04-12T16:32:48.396Z,67.63
2018-04-12T16:34:52.727Z,71.93
2018-04-12T16:36:57.047Z,63.50
2018-04-12T16:39:01.474Z,66.73
2018-04-12T16:41:05.952Z,65.80
2018-04-12T16:43:10.279Z,65.03
2018-04-12T16:45:14.696Z,67.77
2018-04-12T16:47:19.042Z,61.70
2018-04-12T16:49:23.379Z,66.33
2018-04-12T16:51:28.103Z,70.90
2018-04-12T16:53:32.424Z,70.60
2018-04-12T16:55:36.772Z,66.10
2018-04-12T16:57:41.111Z,66.93
2018-04-12T16:59:45.437Z,66.30
2018-04-12T17:01:50.893Z,70.90
2018-04-12T17:03:55.233Z,61.00
2018-04-12T17:05:59.625Z,65.43
2018-04-12T17:08:04.139Z,68.50
2018-04-12T17:10:08.448Z,70.33
2018-04-12T17:12:12.800Z,66.10
2018-04-12T17:14:17.160Z,68.47
2018-04-12T17:16:21.514Z,86.33
2018-04-12T17:18:25.864Z,69.93
2018-04-12T17:20:30.209Z,85.90
2018-04-12T17:22:34.544Z,70.97
2018-04-12T17:24:38.924Z,77.90
2018-04-12T17:26:43.239Z,62.30
2018-04-12T17:28:47.696Z,73.47
2018-04-12T17:30:52.042Z,67.07
2018-04-12T17:32:56.390Z,73.83
2018-04-12T17:35:00.788Z,64.80
2018-04-12T17:37:05.124Z,69.83
2018-04-12T17:39:09.512Z,64.33
2018-04-12T17:41:13.840Z,71.50
2018-04-12T17:43:18.206Z,80.53
2018-04-12T17:45:23.085Z,78.07
2018-04-12T17:47:27.492Z,75.57
2018-04-12T17:49:31.853Z,73.33
2018-04-12T17:51:36.332Z,71.70
2018-04-12T17:53:41.820Z,71.90
2018-04-12T17:55:48.376Z,73.30
2018-04-12T17:57:52.752Z,79.23
2018-04-12T17:59:57.694Z,80.10
2018-04-12T18:02:02.151Z,70.50
2018-04-12T18:04:06.533Z,72.87
2018-04-12T18:06:10.933Z,85.37
2018-04-12T18:08:15.357Z,76.83
2018-04-12T18:10:19.909Z,81.93
2018-04-12T18:12:24.243Z,105.10
2018-04-12T18:14:28.633Z,108.20
2018-04-12T18:16:32.976Z,108.97
2018-04-12T18:18:37.430Z,112.53
2018-04-12T18:20:41.961Z,108.70
2018-04-12T18:22:46.446Z,126.00
2018-04-12T18:24:50.914Z,110.37
2018-04-12T18:26:56.558Z,100.63
2018-04-12T18:29:00.974Z,103.10
2018-04-12T18:31:05.282Z,94.30
2018-04-12T18:33:09.519Z,95.50
2018-04-12T18:35:14.047Z,101.57
2018-04-12T18:37:18.615Z,92.73
2018-04-12T18:39:23.132Z,100.43
2018-04-12T18:41:29.358Z,102.57
2018-04-12T18:43:35.263Z,139.17
2018-04-12T18:45:39.511Z,127.13
2018-04-12T18:47:43.708Z,115.30
2018-04-12T18:49:48.070Z,118.73
2018-04-12T18:51:54.534Z,134.73
2018-04-12T18:53:59.775Z,112.63
2018-04-12T18:56:12.475Z,114.20
2018-04-12T18:58:18.795Z,100.50
2018-04-12T19:00:24.639Z,106.47
2018-04-12T19:02:33.157Z,113.07
2018-04-12T19:04:37.421Z,114.00
2018-04-12T19:06:43.857Z,110.90
2018-04-12T19:08:50.003Z,104.50
2018-04-12T19:10:54.317Z,100.90
2018-04-12T19:12:58.561Z,114.57
2018-04-12T19:15:06.474Z,108.57
2018-04-12T19:17:14.557Z,99.10
2018-04-12T19:19:20.788Z,105.53
2018-04-12T19:21:27.035Z,109.13
2018-04-12T19:23:31.149Z,100.03
2018-04-12T19:25:37.295Z,113.53
2018-04-12T19:27:41.376Z,107.40
2018-04-12T19:29:51.862Z,101.53
2018-04-12T19:31:58.186Z,104.30
2018-04-12T19:34:06.571Z,100.60
2018-04-12T19:36:10.743Z,105.67
2018-04-12T19:38:18.951Z,101.00
2018-04-12T19:40:25.273Z,107.20
2018-04-12T19:42:29.454Z,99.70
2018-04-12T19:44:35.462Z,97.17
2018-04-12T19:46:41.709Z,93.53
2018-04-12T19:48:53.953Z,103.90
2018-04-12T19:51:10.625Z,113.03
2018-04-12T19:53:14.786Z,106.10
2018-04-12T19:55:27.397Z,105.63
2018-04-12T19:57:37.088Z,124.17
2018-04-12T19:59:47.770Z,99.37
2018-04-12T20:01:55.957Z,99.93
2018-04-12T20:04:05.853Z,98.97
2018-04-12T20:06:10.034Z,103.17
2018-04-12T20:08:19.210Z,111.40
2018-04-12T20:10:25.477Z,101.13
2018-04-12T20:12:31.557Z,110.03
2018-04-12T20:14:37.249Z,102.13
2018-04-12T20:16:41.367Z,104.63
2018-04-12T20:18:45.508Z,104.33
2018-04-12T20:20:49.832Z,95.40
2018-04-12T20:22:55.702Z,116.57
2018-04-12T20:24:59.949Z,114.23
2018-04-12T20:27:11.741Z,104.67
2018-04-12T20:29:15.949Z,113.27
2018-04-12T20:33:45.326Z,116.60
2018-04-12T20:35:50.505Z,103.37
2018-04-12T20:37:56.829Z,110.40
2018-04-12T20:40:04.730Z,106.00
2018-04-12T20:42:15.104Z,102.20
2018-04-12T20:44:19.420Z,98.37
2018-04-12T20:46:23.556Z,97.90
2018-04-12T20:48:31.436Z,99.80
2018-04-12T20:50:40.669Z,104.37
2018-04-12T20:52:48.790Z,108.40
2018-04-12T20:54:52.969Z,88.20
2018-04-12T20:56:59.162Z,92.27
2018-04-12T20:59:03.317Z,89.47
2018-04-12T21:01:09.391Z,100.17
2018-04-12T21:03:13.540Z,88.03
2018-04-12T21:05:19.802Z,87.37
2018-04-12T21:07:23.940Z,88.70
2018-04-12T21:09:32.180Z,85.00
2018-04-12T21:11:37.753Z,76.57
2018-04-12T21:13:43.487Z,84.43
2018-04-12T21:15:49.814Z,85.40
2018-04-12T21:17:53.972Z,80.57
2018-04-12T21:19:58.245Z,63.17
2018-04-12T21:22:02.451Z,56.60
2018-04-12T21:24:08.609Z,57.00
2018-04-12T21:26:12.842Z,53.10
2018-04-12T21:28:18.986Z,63.17
2018-04-12T21:30:26.615Z,48.43
2018-04-12T21:32:34.420Z,48.93
2018-04-12T21:34:38.598Z,55.27
2018-04-12T21:36:42.732Z,53.90
2018-04-12T21:38:46.849Z,48.60
2018-04-12T21:40:51.013Z,55.50
2018-04-12T21:42:59.192Z,53.00
2018-04-12T21:45:03.351Z,50.20
2018-04-12T21:47:07.499Z,49.67
2018-04-12T21:49:11.663Z,50.70
2018-04-12T21:51:15.798Z,59.07
2018-04-12T21:53:23.343Z,51.90
2018-04-12T21:55:29.482Z,56.30
2018-04-12T21:57:35.680Z,64.97
2018-04-12T21:59:45.620Z,63.67
2018-04-12T22:01:51.797Z,60.80
2018-04-12T22:03:55.898Z,69.07
2018-04-12T22:06:02.112Z,74.33
2018-04-12T22:08:10.551Z,65.20
2018-04-12T22:10:16.201Z,63.27
2018-04-12T22:12:20.378Z,62.00
2018-04-12T22:14:24.489Z,61.53
2018-04-12T22:16:30.209Z,60.27
2018-04-12T22:18:36.197Z,66.00
2018-04-12T22:20:40.328Z,71.57
2018-04-12T22:22:44.422Z,65.50
2018-04-12T22:24:48.591Z,91.10
2018-04-12T22:26:52.730Z,96.07
2018-04-12T22:28:56.885Z,91.60
2018-04-12T22:31:03.055Z,105.57
2018-04-12T22:33:09.370Z,120.93
2018-04-12T22:35:15.783Z,118.77
2018-04-12T22:37:19.935Z,117.63
2018-04-12T22:39:24.056Z,118.53
2018-04-12T22:41:34.594Z,116.93
2018-04-12T22:43:42.610Z,115.30
2018-04-12T22:45:48.894Z,116.90
2018-04-12T22:47:55.055Z,112.90
2018-04-12T22:50:00.934Z,119.50
2018-04-12T22:52:09.275Z,111.47
2018-04-12T22:54:13.367Z,107.37
2018-04-12T22:56:21.246Z,104.07
2018-04-12T22:58:29.687Z,124.80
2018-04-12T23:00:33.805Z,105.70
2018-04-12T23:02:40.134Z,110.50
2018-04-12T23:04:46.253Z,138.53
2018-04-12T23:06:50.393Z,108.13
2018-04-12T23:08:56.591Z,121.03
2018-04-12T23:11:02.692Z,121.80
2018-04-12T23:13:06.878Z,121.03
2018-04-12T23:15:13.142Z,114.10
2018-04-12T23:17:17.267Z,125.53
2018-04-12T23:19:25.223Z,121.10
2018-04-12T23:21:33.763Z,121.30
2018-04-12T23:23:37.875Z,116.77
2018-04-12T23:25:44.188Z,114.00
2018-04-12T23:27:50.480Z,132.70
2018-04-12T23:29:59.019Z,131.23
2018-04-12T23:32:05.207Z,139.03
2018-04-12T23:34:09.334Z,122.50
2018-04-12T23:36:17.768Z,127.00
2018-04-12T23:38:25.757Z,107.80
2018-04-12T23:40:29.885Z,113.33
2018-04-12T23:42:35.785Z,116.60
2018-04-12T23:44:44.294Z,102.73
2018-04-12T23:46:52.639Z,118.10
2018-04-12T23:48:56.786Z,113.83
2018-04-12T23:51:03.135Z,116.57
2018-04-12T23:53:07.257Z,117.50
2018-04-12T23:55:15.254Z,125.83
2018-04-12T23:57:23.721Z,136.70
2018-04-12T23:59:30.004Z,130.33
